sensor_id;sensor_type;location;lat;lon;timestamp;temperature;humidity
57026;DHT22;43961;52.940;6.834;2023-06-14T00:01:50;14.60;80.00
57026;DHT22;43961;52.940;6.834;2023-06-14T00:04:16;14.50;80.70
57026;DHT22;43961;52.940;6.834;2023-06-14T00:06:42;14.40;80.90
57026;DHT22;43961;52.940;6.834;2023-06-14T00:09:11;14.30;81.10
57026;DHT22;43961;52.940;6.834;2023-06-14T00:11:41;14.20;81.70
57026;DHT22;43961;52.940;6.834;2023-06-14T00:14:07;14.10;84.00
57026;DHT22;43961;52.940;6.834;2023-06-14T00:16:33;14.10;84.90
57026;DHT22;43961;52.940;6.834;2023-06-14T00:19:01;13.90;85.40
57026;DHT22;43961;52.940;6.834;2023-06-14T00:21:29;13.90;86.70
57026;DHT22;43961;52.940;6.834;2023-06-14T00:23:56;13.80;86.20
57026;DHT22;43961;52.940;6.834;2023-06-14T00:26:22;13.90;85.90
57026;DHT22;43961;52.940;6.834;2023-06-14T00:28:48;13.90;84.60
57026;DHT22;43961;52.940;6.834;2023-06-14T00:31:14;13.90;84.50
57026;DHT22;43961;52.940;6.834;2023-06-14T00:33:39;14.00;83.60
57026;DHT22;43961;52.940;6.834;2023-06-14T00:36:05;13.90;83.50
57026;DHT22;43961;52.940;6.834;2023-06-14T00:38:31;14.00;83.70
57026;DHT22;43961;52.940;6.834;2023-06-14T00:40:56;14.10;83.40
57026;DHT22;43961;52.940;6.834;2023-06-14T00:43:22;14.10;83.90
57026;DHT22;43961;52.940;6.834;2023-06-14T00:45:47;14.10;83.70
57026;DHT22;43961;52.940;6.834;2023-06-14T00:48:15;14.10;84.00
57026;DHT22;43961;52.940;6.834;2023-06-14T00:50:41;14.10;83.40
57026;DHT22;43961;52.940;6.834;2023-06-14T00:53:07;14.10;84.30
57026;DHT22;43961;52.940;6.834;2023-06-14T00:55:34;14.00;84.50
57026;DHT22;43961;52.940;6.834;2023-06-14T00:58:00;14.00;84.90
57026;DHT22;43961;52.940;6.834;2023-06-14T01:00:25;14.00;85.30
57026;DHT22;43961;52.940;6.834;2023-06-14T01:02:53;14.10;85.30
57026;DHT22;43961;52.940;6.834;2023-06-14T01:05:20;14.00;85.90
57026;DHT22;43961;52.940;6.834;2023-06-14T01:08:09;14.00;85.90
57026;DHT22;43961;52.940;6.834;2023-06-14T01:10:56;14.00;85.70
57026;DHT22;43961;52.940;6.834;2023-06-14T01:13:36;14.00;86.20
57026;DHT22;43961;52.940;6.834;2023-06-14T01:16:03;14.00;87.10
57026;DHT22;43961;52.940;6.834;2023-06-14T01:18:30;13.90;86.90
57026;DHT22;43961;52.940;6.834;2023-06-14T01:20:56;13.90;87.20
57026;DHT22;43961;52.940;6.834;2023-06-14T01:23:23;14.00;87.10
57026;DHT22;43961;52.940;6.834;2023-06-14T01:25:49;13.90;87.80
57026;DHT22;43961;52.940;6.834;2023-06-14T01:28:20;13.90;88.70
57026;DHT22;43961;52.940;6.834;2023-06-14T01:30:49;13.90;88.60
57026;DHT22;43961;52.940;6.834;2023-06-14T01:33:22;13.90;89.00
57026;DHT22;43961;52.940;6.834;2023-06-14T01:35:52;13.90;89.10
57026;DHT22;43961;52.940;6.834;2023-06-14T01:38:21;13.90;90.00
57026;DHT22;43961;52.940;6.834;2023-06-14T01:40:48;13.90;90.10
57026;DHT22;43961;52.940;6.834;2023-06-14T01:43:15;13.80;90.20
57026;DHT22;43961;52.940;6.834;2023-06-14T01:45:46;13.80;90.10
57026;DHT22;43961;52.940;6.834;2023-06-14T01:48:13;13.80;90.40
57026;DHT22;43961;52.940;6.834;2023-06-14T01:50:39;13.80;90.40
57026;DHT22;43961;52.940;6.834;2023-06-14T01:53:08;13.80;91.00
57026;DHT22;43961;52.940;6.834;2023-06-14T01:55:34;13.80;91.10
57026;DHT22;43961;52.940;6.834;2023-06-14T01:58:03;13.80;91.20
57026;DHT22;43961;52.940;6.834;2023-06-14T02:00:30;13.80;91.10
57026;DHT22;43961;52.940;6.834;2023-06-14T02:02:55;13.80;91.40
57026;DHT22;43961;52.940;6.834;2023-06-14T02:05:22;13.70;91.90
57026;DHT22;43961;52.940;6.834;2023-06-14T02:07:47;13.60;92.50
57026;DHT22;43961;52.940;6.834;2023-06-14T02:10:13;13.60;92.90
57026;DHT22;43961;52.940;6.834;2023-06-14T02:12:39;13.60;93.00
57026;DHT22;43961;52.940;6.834;2023-06-14T02:15:05;13.50;93.40
57026;DHT22;43961;52.940;6.834;2023-06-14T02:17:32;13.50;93.60
57026;DHT22;43961;52.940;6.834;2023-06-14T02:19:58;13.50;93.90
57026;DHT22;43961;52.940;6.834;2023-06-14T02:22:24;13.40;94.10
57026;DHT22;43961;52.940;6.834;2023-06-14T02:24:50;13.40;94.70
57026;DHT22;43961;52.940;6.834;2023-06-14T02:27:16;13.40;94.90
57026;DHT22;43961;52.940;6.834;2023-06-14T02:29:42;13.40;94.70
57026;DHT22;43961;52.940;6.834;2023-06-14T02:32:08;13.40;94.60
57026;DHT22;43961;52.940;6.834;2023-06-14T02:34:34;13.30;94.90
57026;DHT22;43961;52.940;6.834;2023-06-14T02:37:01;13.30;95.00
57026;DHT22;43961;52.940;6.834;2023-06-14T02:39:28;13.20;95.40
57026;DHT22;43961;52.940;6.834;2023-06-14T02:41:54;13.20;95.70
57026;DHT22;43961;52.940;6.834;2023-06-14T02:44:24;13.20;95.40
57026;DHT22;43961;52.940;6.834;2023-06-14T02:46:51;13.20;95.60
57026;DHT22;43961;52.940;6.834;2023-06-14T02:49:16;13.20;95.90
57026;DHT22;43961;52.940;6.834;2023-06-14T02:51:45;13.20;96.40
57026;DHT22;43961;52.940;6.834;2023-06-14T02:54:12;13.20;96.00
57026;DHT22;43961;52.940;6.834;2023-06-14T02:56:37;13.10;96.60
57026;DHT22;43961;52.940;6.834;2023-06-14T02:59:03;13.10;96.20
57026;DHT22;43961;52.940;6.834;2023-06-14T03:01:29;13.10;96.30
57026;DHT22;43961;52.940;6.834;2023-06-14T03:04:03;13.10;96.60
57026;DHT22;43961;52.940;6.834;2023-06-14T03:06:32;13.10;97.00
57026;DHT22;43961;52.940;6.834;2023-06-14T03:09:02;13.10;97.20
57026;DHT22;43961;52.940;6.834;2023-06-14T03:11:31;13.00;97.50
57026;DHT22;43961;52.940;6.834;2023-06-14T03:13:57;13.00;97.40
57026;DHT22;43961;52.940;6.834;2023-06-14T03:16:22;13.00;97.80
57026;DHT22;43961;52.940;6.834;2023-06-14T03:18:53;13.00;97.70
57026;DHT22;43961;52.940;6.834;2023-06-14T03:21:22;13.00;97.80
57026;DHT22;43961;52.940;6.834;2023-06-14T03:23:48;13.00;98.30
57026;DHT22;43961;52.940;6.834;2023-06-14T03:26:14;13.00;98.80
57026;DHT22;43961;52.940;6.834;2023-06-14T03:28:44;13.00;98.70
57026;DHT22;43961;52.940;6.834;2023-06-14T03:31:10;13.00;98.70
57026;DHT22;43961;52.940;6.834;2023-06-14T03:33:38;13.00;99.00
57026;DHT22;43961;52.940;6.834;2023-06-14T03:36:04;13.10;99.30
57026;DHT22;43961;52.940;6.834;2023-06-14T03:38:30;13.10;99.20
57026;DHT22;43961;52.940;6.834;2023-06-14T03:40:56;13.10;99.20
57026;DHT22;43961;52.940;6.834;2023-06-14T03:43:22;13.10;99.50
57026;DHT22;43961;52.940;6.834;2023-06-14T03:45:47;13.10;99.40
57026;DHT22;43961;52.940;6.834;2023-06-14T03:48:13;13.20;99.90
57026;DHT22;43961;52.940;6.834;2023-06-14T03:50:39;13.20;99.80
57026;DHT22;43961;52.940;6.834;2023-06-14T03:53:05;13.20;99.90
57026;DHT22;43961;52.940;6.834;2023-06-14T03:55:30;13.20;99.90
57026;DHT22;43961;52.940;6.834;2023-06-14T03:57:59;13.20;99.90
57026;DHT22;43961;52.940;6.834;2023-06-14T04:00:25;13.30;99.90
57026;DHT22;43961;52.940;6.834;2023-06-14T04:02:51;13.30;99.90
57026;DHT22;43961;52.940;6.834;2023-06-14T04:05:17;13.40;99.90
57026;DHT22;43961;52.940;6.834;2023-06-14T04:07:45;13.40;99.90
57026;DHT22;43961;52.940;6.834;2023-06-14T04:10:12;13.40;99.90
57026;DHT22;43961;52.940;6.834;2023-06-14T04:12:38;13.40;99.90
57026;DHT22;43961;52.940;6.834;2023-06-14T04:15:04;13.50;99.90
57026;DHT22;43961;52.940;6.834;2023-06-14T04:17:34;13.50;99.90
57026;DHT22;43961;52.940;6.834;2023-06-14T04:20:00;13.60;99.90
57026;DHT22;43961;52.940;6.834;2023-06-14T04:22:26;13.70;99.90
57026;DHT22;43961;52.940;6.834;2023-06-14T04:24:56;13.80;99.90
57026;DHT22;43961;52.940;6.834;2023-06-14T04:27:26;13.80;99.90
57026;DHT22;43961;52.940;6.834;2023-06-14T04:29:53;13.90;99.90
57026;DHT22;43961;52.940;6.834;2023-06-14T04:32:25;14.00;99.90
57026;DHT22;43961;52.940;6.834;2023-06-14T04:34:55;14.10;99.90
57026;DHT22;43961;52.940;6.834;2023-06-14T04:37:21;14.10;99.90
57026;DHT22;43961;52.940;6.834;2023-06-14T04:39:53;14.20;99.90
57026;DHT22;43961;52.940;6.834;2023-06-14T04:42:22;14.20;99.90
57026;DHT22;43961;52.940;6.834;2023-06-14T04:44:51;14.30;99.90
57026;DHT22;43961;52.940;6.834;2023-06-14T04:47:20;14.30;99.90
57026;DHT22;43961;52.940;6.834;2023-06-14T04:49:46;14.40;99.90
57026;DHT22;43961;52.940;6.834;2023-06-14T04:52:12;14.40;99.90
57026;DHT22;43961;52.940;6.834;2023-06-14T04:54:39;14.50;99.90
57026;DHT22;43961;52.940;6.834;2023-06-14T04:57:07;14.50;99.90
57026;DHT22;43961;52.940;6.834;2023-06-14T04:59:34;14.60;99.90
57026;DHT22;43961;52.940;6.834;2023-06-14T05:02:01;14.60;99.90
57026;DHT22;43961;52.940;6.834;2023-06-14T05:04:27;14.70;99.90
57026;DHT22;43961;52.940;6.834;2023-06-14T05:06:54;14.70;99.90
57026;DHT22;43961;52.940;6.834;2023-06-14T05:09:25;14.70;99.90
57026;DHT22;43961;52.940;6.834;2023-06-14T05:11:51;14.80;99.90
57026;DHT22;43961;52.940;6.834;2023-06-14T05:14:16;14.80;99.90
57026;DHT22;43961;52.940;6.834;2023-06-14T05:16:43;15.00;99.90
57026;DHT22;43961;52.940;6.834;2023-06-14T05:19:09;15.00;99.90
57026;DHT22;43961;52.940;6.834;2023-06-14T05:21:36;15.10;99.90
57026;DHT22;43961;52.940;6.834;2023-06-14T05:24:02;15.10;99.90
57026;DHT22;43961;52.940;6.834;2023-06-14T05:26:28;15.20;99.90
57026;DHT22;43961;52.940;6.834;2023-06-14T05:28:57;15.20;99.90
57026;DHT22;43961;52.940;6.834;2023-06-14T05:31:24;15.30;99.90
57026;DHT22;43961;52.940;6.834;2023-06-14T05:33:51;15.30;99.90
57026;DHT22;43961;52.940;6.834;2023-06-14T05:36:17;15.40;99.90
57026;DHT22;43961;52.940;6.834;2023-06-14T05:38:43;15.50;99.90
57026;DHT22;43961;52.940;6.834;2023-06-14T05:41:09;15.60;99.90
57026;DHT22;43961;52.940;6.834;2023-06-14T05:43:34;15.70;99.90
57026;DHT22;43961;52.940;6.834;2023-06-14T05:46:00;15.80;99.90
57026;DHT22;43961;52.940;6.834;2023-06-14T05:48:26;15.90;99.90
57026;DHT22;43961;52.940;6.834;2023-06-14T05:50:51;16.00;99.90
57026;DHT22;43961;52.940;6.834;2023-06-14T05:53:17;16.10;99.90
57026;DHT22;43961;52.940;6.834;2023-06-14T05:55:43;16.20;99.80
57026;DHT22;43961;52.940;6.834;2023-06-14T05:58:08;16.40;99.60
57026;DHT22;43961;52.940;6.834;2023-06-14T06:00:34;16.50;99.90
57026;DHT22;43961;52.940;6.834;2023-06-14T06:03:02;16.60;99.30
57026;DHT22;43961;52.940;6.834;2023-06-14T06:05:28;16.80;99.70
57026;DHT22;43961;52.940;6.834;2023-06-14T06:07:53;16.90;98.70
57026;DHT22;43961;52.940;6.834;2023-06-14T06:10:19;17.00;98.10
57026;DHT22;43961;52.940;6.834;2023-06-14T06:12:45;17.10;98.30
57026;DHT22;43961;52.940;6.834;2023-06-14T06:15:12;17.30;97.80
57026;DHT22;43961;52.940;6.834;2023-06-14T06:17:38;17.40;97.80
57026;DHT22;43961;52.940;6.834;2023-06-14T06:20:05;17.60;96.20
57026;DHT22;43961;52.940;6.834;2023-06-14T06:22:34;17.70;96.70
57026;DHT22;43961;52.940;6.834;2023-06-14T06:24:59;17.80;96.40
57026;DHT22;43961;52.940;6.834;2023-06-14T06:27:25;18.00;95.80
57026;DHT22;43961;52.940;6.834;2023-06-14T06:29:51;18.10;94.90
57026;DHT22;43961;52.940;6.834;2023-06-14T06:32:18;18.20;94.90
57026;DHT22;43961;52.940;6.834;2023-06-14T06:34:44;18.40;94.40
57026;DHT22;43961;52.940;6.834;2023-06-14T06:37:11;18.40;94.90
57026;DHT22;43961;52.940;6.834;2023-06-14T06:39:37;18.60;93.80
57026;DHT22;43961;52.940;6.834;2023-06-14T06:42:02;18.70;93.50
57026;DHT22;43961;52.940;6.834;2023-06-14T06:44:28;18.90;93.10
57026;DHT22;43961;52.940;6.834;2023-06-14T06:46:54;19.10;92.40
57026;DHT22;43961;52.940;6.834;2023-06-14T06:49:20;19.20;92.40
57026;DHT22;43961;52.940;6.834;2023-06-14T06:52:07;19.40;91.80
57026;DHT22;43961;52.940;6.834;2023-06-14T06:54:33;19.60;92.20
57026;DHT22;43961;52.940;6.834;2023-06-14T06:56:59;19.80;91.20
57026;DHT22;43961;52.940;6.834;2023-06-14T06:59:27;19.90;90.20
57026;DHT22;43961;52.940;6.834;2023-06-14T07:01:52;20.00;90.00
57026;DHT22;43961;52.940;6.834;2023-06-14T07:04:18;20.10;88.30
57026;DHT22;43961;52.940;6.834;2023-06-14T07:06:45;20.20;89.00
57026;DHT22;43961;52.940;6.834;2023-06-14T07:09:12;20.30;88.80
57026;DHT22;43961;52.940;6.834;2023-06-14T07:11:40;20.40;88.10
57026;DHT22;43961;52.940;6.834;2023-06-14T07:14:06;20.60;87.00
57026;DHT22;43961;52.940;6.834;2023-06-14T07:16:32;20.80;86.70
57026;DHT22;43961;52.940;6.834;2023-06-14T07:18:58;20.90;85.90
57026;DHT22;43961;52.940;6.834;2023-06-14T07:21:23;21.10;85.50
57026;DHT22;43961;52.940;6.834;2023-06-14T07:23:52;21.20;82.00
57026;DHT22;43961;52.940;6.834;2023-06-14T07:26:18;21.30;83.40
57026;DHT22;43961;52.940;6.834;2023-06-14T07:28:44;21.30;82.70
57026;DHT22;43961;52.940;6.834;2023-06-14T07:31:13;21.30;82.20
57026;DHT22;43961;52.940;6.834;2023-06-14T07:33:40;21.50;81.20
57026;DHT22;43961;52.940;6.834;2023-06-14T07:36:05;21.50;81.00
57026;DHT22;43961;52.940;6.834;2023-06-14T07:38:31;21.60;81.80
57026;DHT22;43961;52.940;6.834;2023-06-14T07:40:57;21.80;80.60
57026;DHT22;43961;52.940;6.834;2023-06-14T07:43:23;21.90;78.70
57026;DHT22;43961;52.940;6.834;2023-06-14T07:45:48;22.10;79.10
57026;DHT22;43961;52.940;6.834;2023-06-14T07:48:14;22.30;78.20
57026;DHT22;43961;52.940;6.834;2023-06-14T07:50:40;22.40;76.30
57026;DHT22;43961;52.940;6.834;2023-06-14T07:53:06;22.30;72.60
57026;DHT22;43961;52.940;6.834;2023-06-14T07:55:32;22.30;74.80
57026;DHT22;43961;52.940;6.834;2023-06-14T07:57:59;22.30;73.80
57026;DHT22;43961;52.940;6.834;2023-06-14T08:00:24;22.40;73.50
57026;DHT22;43961;52.940;6.834;2023-06-14T08:02:50;22.40;74.00
57026;DHT22;43961;52.940;6.834;2023-06-14T08:05:17;22.50;75.00
57026;DHT22;43961;52.940;6.834;2023-06-14T08:07:43;22.70;71.80
57026;DHT22;43961;52.940;6.834;2023-06-14T08:10:10;22.70;72.60
57026;DHT22;43961;52.940;6.834;2023-06-14T08:12:37;22.60;73.00
57026;DHT22;43961;52.940;6.834;2023-06-14T08:15:03;22.60;72.00
57026;DHT22;43961;52.940;6.834;2023-06-14T08:17:28;22.60;71.30
57026;DHT22;43961;52.940;6.834;2023-06-14T08:19:54;22.80;72.60
57026;DHT22;43961;52.940;6.834;2023-06-14T08:22:23;22.90;70.50
57026;DHT22;43961;52.940;6.834;2023-06-14T08:24:50;22.90;69.20
57026;DHT22;43961;52.940;6.834;2023-06-14T08:27:15;22.80;70.00
57026;DHT22;43961;52.940;6.834;2023-06-14T08:29:41;22.90;69.10
57026;DHT22;43961;52.940;6.834;2023-06-14T08:32:07;23.10;69.90
57026;DHT22;43961;52.940;6.834;2023-06-14T08:34:33;23.20;68.60
57026;DHT22;43961;52.940;6.834;2023-06-14T08:36:59;23.20;68.70
57026;DHT22;43961;52.940;6.834;2023-06-14T08:39:24;23.30;69.70
57026;DHT22;43961;52.940;6.834;2023-06-14T08:41:52;23.30;68.80
57026;DHT22;43961;52.940;6.834;2023-06-14T08:44:18;23.30;69.50
57026;DHT22;43961;52.940;6.834;2023-06-14T08:46:43;23.30;69.00
57026;DHT22;43961;52.940;6.834;2023-06-14T08:49:12;23.40;69.00
57026;DHT22;43961;52.940;6.834;2023-06-14T08:51:39;23.40;68.80
57026;DHT22;43961;52.940;6.834;2023-06-14T08:54:07;23.60;69.20
57026;DHT22;43961;52.940;6.834;2023-06-14T08:56:33;23.70;67.70
57026;DHT22;43961;52.940;6.834;2023-06-14T08:59:00;23.70;68.20
57026;DHT22;43961;52.940;6.834;2023-06-14T09:01:34;23.80;67.20
57026;DHT22;43961;52.940;6.834;2023-06-14T09:04:00;23.80;67.80
57026;DHT22;43961;52.940;6.834;2023-06-14T09:06:25;23.80;65.70
57026;DHT22;43961;52.940;6.834;2023-06-14T09:08:54;23.80;67.40
57026;DHT22;43961;52.940;6.834;2023-06-14T09:11:21;23.80;66.60
57026;DHT22;43961;52.940;6.834;2023-06-14T09:13:47;23.70;65.40
57026;DHT22;43961;52.940;6.834;2023-06-14T09:16:12;23.50;66.10
57026;DHT22;43961;52.940;6.834;2023-06-14T09:18:43;23.50;66.40
57026;DHT22;43961;52.940;6.834;2023-06-14T09:21:11;23.50;67.50
57026;DHT22;43961;52.940;6.834;2023-06-14T09:23:42;23.70;66.60
57026;DHT22;43961;52.940;6.834;2023-06-14T09:26:15;23.70;67.60
57026;DHT22;43961;52.940;6.834;2023-06-14T09:28:42;23.90;65.40
57026;DHT22;43961;52.940;6.834;2023-06-14T09:31:13;23.90;64.90
57026;DHT22;43961;52.940;6.834;2023-06-14T09:33:42;23.80;66.30
57026;DHT22;43961;52.940;6.834;2023-06-14T09:36:18;23.90;63.40
57026;DHT22;43961;52.940;6.834;2023-06-14T09:39:00;23.90;63.90
57026;DHT22;43961;52.940;6.834;2023-06-14T09:41:40;23.90;61.50
57026;DHT22;43961;52.940;6.834;2023-06-14T09:44:09;23.90;61.30
57026;DHT22;43961;52.940;6.834;2023-06-14T09:46:36;23.90;61.20
57026;DHT22;43961;52.940;6.834;2023-06-14T09:49:03;23.90;61.40
57026;DHT22;43961;52.940;6.834;2023-06-14T09:51:30;23.80;58.00
57026;DHT22;43961;52.940;6.834;2023-06-14T09:53:59;23.70;59.50
57026;DHT22;43961;52.940;6.834;2023-06-14T09:56:35;23.80;59.80
57026;DHT22;43961;52.940;6.834;2023-06-14T09:59:04;24.00;61.30
57026;DHT22;43961;52.940;6.834;2023-06-14T10:01:31;24.20;61.00
57026;DHT22;43961;52.940;6.834;2023-06-14T10:04:19;24.20;59.40
57026;DHT22;43961;52.940;6.834;2023-06-14T10:06:46;24.20;59.60
57026;DHT22;43961;52.940;6.834;2023-06-14T10:09:12;24.20;59.70
57026;DHT22;43961;52.940;6.834;2023-06-14T10:11:40;24.20;60.30
57026;DHT22;43961;52.940;6.834;2023-06-14T10:14:11;24.30;60.80
57026;DHT22;43961;52.940;6.834;2023-06-14T10:16:45;24.30;59.30
57026;DHT22;43961;52.940;6.834;2023-06-14T10:19:31;24.20;59.40
57026;DHT22;43961;52.940;6.834;2023-06-14T10:22:10;24.40;58.10
57026;DHT22;43961;52.940;6.834;2023-06-14T10:24:43;24.50;57.90
57026;DHT22;43961;52.940;6.834;2023-06-14T10:27:09;24.40;59.30
57026;DHT22;43961;52.940;6.834;2023-06-14T10:32:18;24.30;58.50
57026;DHT22;43961;52.940;6.834;2023-06-14T10:34:44;24.50;57.60
57026;DHT22;43961;52.940;6.834;2023-06-14T10:37:12;24.50;57.70
57026;DHT22;43961;52.940;6.834;2023-06-14T10:39:42;24.50;56.80
57026;DHT22;43961;52.940;6.834;2023-06-14T10:42:09;24.50;57.40
57026;DHT22;43961;52.940;6.834;2023-06-14T10:44:50;24.50;57.20
57026;DHT22;43961;52.940;6.834;2023-06-14T10:47:20;24.60;57.40
57026;DHT22;43961;52.940;6.834;2023-06-14T10:49:53;24.80;57.80
57026;DHT22;43961;52.940;6.834;2023-06-14T10:52:27;24.80;56.30
57026;DHT22;43961;52.940;6.834;2023-06-14T10:55:04;24.80;56.70
57026;DHT22;43961;52.940;6.834;2023-06-14T10:57:34;24.70;57.40
57026;DHT22;43961;52.940;6.834;2023-06-14T11:00:05;24.60;55.90
57026;DHT22;43961;52.940;6.834;2023-06-14T11:05:14;24.50;56.20
57026;DHT22;43961;52.940;6.834;2023-06-14T11:07:55;24.50;55.90
57026;DHT22;43961;52.940;6.834;2023-06-14T11:12:50;24.50;56.30
57026;DHT22;43961;52.940;6.834;2023-06-14T11:15:17;24.60;57.40
57026;DHT22;43961;52.940;6.834;2023-06-14T11:17:51;24.80;56.50
57026;DHT22;43961;52.940;6.834;2023-06-14T11:20:19;24.90;57.00
57026;DHT22;43961;52.940;6.834;2023-06-14T11:22:45;24.90;55.70
57026;DHT22;43961;52.940;6.834;2023-06-14T11:25:12;24.90;57.20
57026;DHT22;43961;52.940;6.834;2023-06-14T11:27:37;25.10;57.20
57026;DHT22;43961;52.940;6.834;2023-06-14T11:30:03;25.20;55.30
57026;DHT22;43961;52.940;6.834;2023-06-14T11:32:33;25.30;56.20
57026;DHT22;43961;52.940;6.834;2023-06-14T11:34:58;25.50;56.90
57026;DHT22;43961;52.940;6.834;2023-06-14T11:37:28;25.50;55.70
57026;DHT22;43961;52.940;6.834;2023-06-14T11:40:00;25.50;54.90
57026;DHT22;43961;52.940;6.834;2023-06-14T11:42:27;25.30;54.60
57026;DHT22;43961;52.940;6.834;2023-06-14T11:44:54;25.40;55.60
57026;DHT22;43961;52.940;6.834;2023-06-14T11:47:19;25.30;55.30
57026;DHT22;43961;52.940;6.834;2023-06-14T11:49:46;25.20;55.60
57026;DHT22;43961;52.940;6.834;2023-06-14T11:52:12;25.10;56.30
57026;DHT22;43961;52.940;6.834;2023-06-14T11:54:38;25.20;55.30
57026;DHT22;43961;52.940;6.834;2023-06-14T11:57:06;25.20;55.50
57026;DHT22;43961;52.940;6.834;2023-06-14T11:59:37;25.40;56.90
57026;DHT22;43961;52.940;6.834;2023-06-14T12:02:04;25.60;56.20
57026;DHT22;43961;52.940;6.834;2023-06-14T12:04:30;25.60;55.40
57026;DHT22;43961;52.940;6.834;2023-06-14T12:06:56;25.60;55.70
57026;DHT22;43961;52.940;6.834;2023-06-14T12:09:23;25.50;55.30
57026;DHT22;43961;52.940;6.834;2023-06-14T12:12:00;25.60;55.00
57026;DHT22;43961;52.940;6.834;2023-06-14T12:14:32;25.50;55.80
57026;DHT22;43961;52.940;6.834;2023-06-14T12:17:06;25.40;56.00
57026;DHT22;43961;52.940;6.834;2023-06-14T12:19:45;25.40;56.20
57026;DHT22;43961;52.940;6.834;2023-06-14T12:22:12;25.30;55.70
57026;DHT22;43961;52.940;6.834;2023-06-14T12:24:38;25.40;56.80
57026;DHT22;43961;52.940;6.834;2023-06-14T12:27:05;25.40;56.20
57026;DHT22;43961;52.940;6.834;2023-06-14T12:29:31;25.60;55.90
57026;DHT22;43961;52.940;6.834;2023-06-14T12:31:57;25.80;54.80
57026;DHT22;43961;52.940;6.834;2023-06-14T12:34:26;26.00;56.20
57026;DHT22;43961;52.940;6.834;2023-06-14T12:36:56;25.90;54.50
57026;DHT22;43961;52.940;6.834;2023-06-14T12:39:21;25.80;54.90
57026;DHT22;43961;52.940;6.834;2023-06-14T12:41:48;25.50;54.40
57026;DHT22;43961;52.940;6.834;2023-06-14T12:44:14;25.40;56.00
57026;DHT22;43961;52.940;6.834;2023-06-14T12:46:41;25.50;56.60
57026;DHT22;43961;52.940;6.834;2023-06-14T12:49:09;25.60;55.60
57026;DHT22;43961;52.940;6.834;2023-06-14T12:51:36;25.70;55.80
57026;DHT22;43961;52.940;6.834;2023-06-14T12:54:02;25.80;55.70
57026;DHT22;43961;52.940;6.834;2023-06-14T12:56:28;26.00;55.60
57026;DHT22;43961;52.940;6.834;2023-06-14T12:58:53;26.20;55.70
57026;DHT22;43961;52.940;6.834;2023-06-14T13:01:19;26.00;54.10
57026;DHT22;43961;52.940;6.834;2023-06-14T13:03:46;26.20;55.60
57026;DHT22;43961;52.940;6.834;2023-06-14T13:06:12;26.40;55.40
57026;DHT22;43961;52.940;6.834;2023-06-14T13:08:38;26.30;53.30
57026;DHT22;43961;52.940;6.834;2023-06-14T13:11:04;26.20;54.80
57026;DHT22;43961;52.940;6.834;2023-06-14T13:13:29;26.10;54.90
57026;DHT22;43961;52.940;6.834;2023-06-14T13:15:55;26.00;54.50
57026;DHT22;43961;52.940;6.834;2023-06-14T13:18:21;26.10;55.20
57026;DHT22;43961;52.940;6.834;2023-06-14T13:20:47;26.20;55.20
57026;DHT22;43961;52.940;6.834;2023-06-14T13:23:13;26.30;54.20
57026;DHT22;43961;52.940;6.834;2023-06-14T13:25:40;26.50;54.20
57026;DHT22;43961;52.940;6.834;2023-06-14T13:28:05;26.40;55.70
57026;DHT22;43961;52.940;6.834;2023-06-14T13:30:32;26.70;54.60
57026;DHT22;43961;52.940;6.834;2023-06-14T13:32:58;26.90;54.30
57026;DHT22;43961;52.940;6.834;2023-06-14T13:35:24;27.00;54.00
57026;DHT22;43961;52.940;6.834;2023-06-14T13:37:50;27.00;53.40
57026;DHT22;43961;52.940;6.834;2023-06-14T13:40:17;27.00;53.40
57026;DHT22;43961;52.940;6.834;2023-06-14T13:42:43;26.50;53.10
57026;DHT22;43961;52.940;6.834;2023-06-14T13:45:11;26.10;53.40
57026;DHT22;43961;52.940;6.834;2023-06-14T13:47:37;26.00;55.60
57026;DHT22;43961;52.940;6.834;2023-06-14T13:50:03;26.10;54.30
57026;DHT22;43961;52.940;6.834;2023-06-14T13:52:29;26.40;55.00
57026;DHT22;43961;52.940;6.834;2023-06-14T13:54:55;26.50;54.40
57026;DHT22;43961;52.940;6.834;2023-06-14T13:57:20;26.70;54.30
57026;DHT22;43961;52.940;6.834;2023-06-14T13:59:46;26.40;53.00
57026;DHT22;43961;52.940;6.834;2023-06-14T14:02:13;26.00;54.50
57026;DHT22;43961;52.940;6.834;2023-06-14T14:04:39;25.80;53.60
57026;DHT22;43961;52.940;6.834;2023-06-14T14:07:06;25.60;54.40
57026;DHT22;43961;52.940;6.834;2023-06-14T14:09:35;25.40;54.20
57026;DHT22;43961;52.940;6.834;2023-06-14T14:12:01;25.40;54.90
57026;DHT22;43961;52.940;6.834;2023-06-14T14:14:28;25.50;56.00
57026;DHT22;43961;52.940;6.834;2023-06-14T14:16:54;25.70;56.00
57026;DHT22;43961;52.940;6.834;2023-06-14T14:19:23;25.80;55.30
57026;DHT22;43961;52.940;6.834;2023-06-14T14:21:49;25.80;53.30
57026;DHT22;43961;52.940;6.834;2023-06-14T14:24:16;25.80;55.60
57026;DHT22;43961;52.940;6.834;2023-06-14T14:26:42;25.90;54.60
57026;DHT22;43961;52.940;6.834;2023-06-14T14:29:08;25.90;54.40
57026;DHT22;43961;52.940;6.834;2023-06-14T14:31:36;25.60;54.50
57026;DHT22;43961;52.940;6.834;2023-06-14T14:34:02;25.40;55.00
57026;DHT22;43961;52.940;6.834;2023-06-14T14:36:28;25.30;54.70
57026;DHT22;43961;52.940;6.834;2023-06-14T14:38:53;25.30;54.70
57026;DHT22;43961;52.940;6.834;2023-06-14T14:41:19;25.30;55.40
57026;DHT22;43961;52.940;6.834;2023-06-14T14:43:45;25.20;54.70
57026;DHT22;43961;52.940;6.834;2023-06-14T14:46:11;25.20;56.20
57026;DHT22;43961;52.940;6.834;2023-06-14T14:48:37;25.30;55.10
57026;DHT22;43961;52.940;6.834;2023-06-14T14:51:03;25.40;54.70
57026;DHT22;43961;52.940;6.834;2023-06-14T14:53:29;25.30;54.20
57026;DHT22;43961;52.940;6.834;2023-06-14T14:55:54;25.10;55.20
57026;DHT22;43961;52.940;6.834;2023-06-14T14:58:20;24.90;55.10
57026;DHT22;43961;52.940;6.834;2023-06-14T15:00:46;25.00;56.50
57026;DHT22;43961;52.940;6.834;2023-06-14T15:03:13;25.20;56.20
57026;DHT22;43961;52.940;6.834;2023-06-14T15:05:39;25.50;55.60
57026;DHT22;43961;52.940;6.834;2023-06-14T15:08:05;25.60;53.90
57026;DHT22;43961;52.940;6.834;2023-06-14T15:10:37;25.60;53.50
57026;DHT22;43961;52.940;6.834;2023-06-14T15:13:03;25.50;54.10
57026;DHT22;43961;52.940;6.834;2023-06-14T15:15:29;25.40;54.60
57026;DHT22;43961;52.940;6.834;2023-06-14T15:17:54;25.30;55.10
57026;DHT22;43961;52.940;6.834;2023-06-14T15:20:20;25.20;53.90
57026;DHT22;43961;52.940;6.834;2023-06-14T15:22:46;25.20;54.30
57026;DHT22;43961;52.940;6.834;2023-06-14T15:25:11;25.20;54.50
57026;DHT22;43961;52.940;6.834;2023-06-14T15:27:37;25.30;54.40
57026;DHT22;43961;52.940;6.834;2023-06-14T15:30:03;25.50;54.70
57026;DHT22;43961;52.940;6.834;2023-06-14T15:32:28;25.70;54.30
57026;DHT22;43961;52.940;6.834;2023-06-14T15:34:59;25.70;54.20
57026;DHT22;43961;52.940;6.834;2023-06-14T15:37:25;25.60;54.60
57026;DHT22;43961;52.940;6.834;2023-06-14T15:39:50;25.40;54.30